createdAt,value
2023-04-16T00:01:17.073Z,19.28
2023-04-16T00:06:18.143Z,19.24
2023-04-16T00:08:46.209Z,19.22
2023-04-16T00:11:14.383Z,19.22
2023-04-16T00:13:42.374Z,19.18
2023-04-16T00:16:10.811Z,19.19
2023-04-16T00:23:45.695Z,19.15
2023-04-16T00:26:13.772Z,19.13
2023-04-16T00:28:43.172Z,19.14
2023-04-16T00:31:11.293Z,19.11
2023-04-16T00:33:39.541Z,19.12
2023-04-16T00:36:07.994Z,19.11
2023-04-16T00:38:35.988Z,19.09
2023-04-16T00:41:04.038Z,19.07
2023-04-16T00:43:32.113Z,19.06
2023-04-16T00:46:00.277Z,19.03
2023-04-16T00:48:28.460Z,19.04
2023-04-16T00:50:56.672Z,19.01
2023-04-16T00:53:24.667Z,19.00
2023-04-16T00:55:53.100Z,19.01
2023-04-16T00:58:21.663Z,18.99
2023-04-16T01:00:50.773Z,18.99
2023-04-16T01:03:19.028Z,18.97
2023-04-16T01:05:49.477Z,18.96
2023-04-16T01:08:18.361Z,18.94
2023-04-16T01:10:46.741Z,18.93
2023-04-16T01:13:15.014Z,18.89
2023-04-16T01:15:43.104Z,18.89
2023-04-16T01:18:18.100Z,18.90
2023-04-16T01:20:47.011Z,18.86
2023-04-16T01:23:15.719Z,18.88
2023-04-16T01:25:45.903Z,18.84
2023-04-16T01:28:13.934Z,18.83
2023-04-16T01:30:41.971Z,18.82
2023-04-16T01:33:18.338Z,18.82
2023-04-16T01:35:46.613Z,18.81
2023-04-16T01:38:16.841Z,18.79
2023-04-16T01:40:45.099Z,18.78
2023-04-16T01:43:13.699Z,18.77
2023-04-16T01:45:42.800Z,18.79
2023-04-16T01:48:13.215Z,18.77
2023-04-16T01:50:41.804Z,18.78
2023-04-16T01:53:09.889Z,18.77
2023-04-16T01:55:37.948Z,18.76
2023-04-16T01:58:08.070Z,18.69
2023-04-16T02:00:36.589Z,18.69
2023-04-16T02:03:04.975Z,18.69
2023-04-16T02:05:33.207Z,18.67
2023-04-16T02:08:01.799Z,18.63
2023-04-16T02:10:31.699Z,18.64
2023-04-16T02:12:59.978Z,18.62
2023-04-16T02:15:28.141Z,18.61
2023-04-16T02:17:57.287Z,18.63
2023-04-16T02:20:26.378Z,18.59
2023-04-16T02:22:57.180Z,18.60
2023-04-16T02:25:25.467Z,18.59
2023-04-16T02:27:55.365Z,18.61
2023-04-16T02:30:37.048Z,18.58
2023-04-16T02:33:05.839Z,18.54
2023-04-16T02:35:34.848Z,18.53
2023-04-16T02:38:04.398Z,18.53
2023-04-16T02:40:32.921Z,18.48
2023-04-16T02:43:01.408Z,18.52
2023-04-16T02:45:31.762Z,18.50
2023-04-16T02:48:01.058Z,18.49
2023-04-16T02:50:29.403Z,18.49
2023-04-16T02:52:57.578Z,18.48
2023-04-16T02:55:25.960Z,18.47
2023-04-16T02:57:54.038Z,18.46
2023-04-16T03:00:22.526Z,18.44
2023-04-16T03:02:51.164Z,18.43
2023-04-16T03:05:19.579Z,18.42
2023-04-16T03:07:48.249Z,18.37
2023-04-16T03:10:17.133Z,18.31
2023-04-16T03:12:45.127Z,18.33
2023-04-16T03:15:13.061Z,18.36
2023-04-16T03:17:41.824Z,18.39
2023-04-16T03:20:11.496Z,18.42
2023-04-16T03:22:39.867Z,18.44
2023-04-16T03:25:08.352Z,18.50
2023-04-16T03:27:36.337Z,18.53
2023-04-16T03:30:05.207Z,18.59
2023-04-16T03:32:34.299Z,18.61
2023-04-16T03:35:06.945Z,18.65
2023-04-16T03:37:35.579Z,18.68
2023-04-16T03:40:06.009Z,18.71
2023-04-16T03:42:34.071Z,18.75
2023-04-16T03:45:02.361Z,18.78
2023-04-16T03:47:30.572Z,18.82
2023-04-16T03:50:02.109Z,18.84
2023-04-16T03:52:30.162Z,18.87
2023-04-16T03:54:58.336Z,18.92
2023-04-16T03:57:28.560Z,18.95
2023-04-16T04:00:00.202Z,18.97
2023-04-16T04:02:29.203Z,19.01
2023-04-16T04:04:57.586Z,19.07
2023-04-16T04:07:25.691Z,19.10
2023-04-16T04:09:54.020Z,19.12
2023-04-16T04:12:22.271Z,19.15
2023-04-16T04:14:50.348Z,19.21
2023-04-16T04:17:18.658Z,19.23
2023-04-16T04:19:58.111Z,19.26
2023-04-16T04:22:29.332Z,19.29
2023-04-16T04:24:57.228Z,19.31
2023-04-16T04:27:27.738Z,19.34
2023-04-16T04:29:56.642Z,19.37
2023-04-16T04:32:25.867Z,19.38
2023-04-16T04:34:54.096Z,19.42
2023-04-16T04:37:22.074Z,19.44
2023-04-16T04:39:50.029Z,19.44
2023-04-16T04:42:18.693Z,19.47
2023-04-16T04:44:46.991Z,19.51
2023-04-16T04:47:15.144Z,19.52
2023-04-16T04:49:43.257Z,19.55
2023-04-16T04:52:12.040Z,19.58
2023-04-16T04:54:41.868Z,19.59
2023-04-16T04:57:10.011Z,19.61
2023-04-16T04:59:38.193Z,19.61
2023-04-16T05:02:06.610Z,19.63
2023-04-16T05:04:34.824Z,19.63
2023-04-16T05:07:03.190Z,19.64
2023-04-16T05:09:31.386Z,19.65
2023-04-16T05:11:59.471Z,19.67
2023-04-16T05:14:27.352Z,19.70
2023-04-16T05:16:55.665Z,19.70
2023-04-16T05:19:23.896Z,19.70
2023-04-16T05:21:52.173Z,19.71
2023-04-16T05:24:20.429Z,19.71
2023-04-16T05:26:48.625Z,19.72
2023-04-16T05:29:16.801Z,19.73
2023-04-16T05:31:44.973Z,19.75
2023-04-16T05:34:13.043Z,19.74
2023-04-16T05:36:41.107Z,19.75
2023-04-16T05:39:09.565Z,19.76
2023-04-16T05:41:37.778Z,19.75
2023-04-16T05:44:05.729Z,19.75
2023-04-16T05:46:33.888Z,19.75
2023-04-16T05:49:02.072Z,19.78
2023-04-16T05:51:30.053Z,19.78
2023-04-16T05:53:58.195Z,19.79
2023-04-16T05:56:27.321Z,19.81
2023-04-16T05:58:55.286Z,19.80
2023-04-16T06:01:23.470Z,19.81
2023-04-16T06:03:51.745Z,19.83
2023-04-16T06:06:19.914Z,19.84
2023-04-16T06:08:48.190Z,19.86
2023-04-16T06:11:16.278Z,19.87
2023-04-16T06:13:44.654Z,19.87
2023-04-16T06:16:12.865Z,19.88
2023-04-16T06:18:41.308Z,19.86
2023-04-16T06:21:09.380Z,19.87
2023-04-16T06:23:37.467Z,19.91
2023-04-16T06:26:05.698Z,19.88
2023-04-16T06:28:33.714Z,19.89
2023-04-16T06:31:01.901Z,19.90
2023-04-16T06:33:30.142Z,19.92
2023-04-16T06:35:58.220Z,19.93
2023-04-16T06:38:26.192Z,19.94
2023-04-16T06:40:54.365Z,19.96
2023-04-16T06:43:22.639Z,19.96
2023-04-16T06:45:50.954Z,19.95
2023-04-16T06:48:18.992Z,19.96
2023-04-16T06:50:47.053Z,19.96
2023-04-16T06:53:15.709Z,19.96
2023-04-16T06:55:43.914Z,20.00
2023-04-16T06:58:11.999Z,19.98
2023-04-16T07:00:39.965Z,20.00
2023-04-16T07:03:08.350Z,19.98
2023-04-16T07:05:36.632Z,19.97
2023-04-16T07:08:04.786Z,20.03
2023-04-16T07:10:32.878Z,20.04
2023-04-16T07:13:01.824Z,20.06
2023-04-16T07:15:29.820Z,20.09
2023-04-16T07:17:57.928Z,20.12
2023-04-16T07:20:26.173Z,20.10
2023-04-16T07:22:54.439Z,20.11
2023-04-16T07:25:22.396Z,20.15
2023-04-16T07:27:50.497Z,20.17
2023-04-16T07:30:18.768Z,20.16
2023-04-16T07:32:46.775Z,20.19
2023-04-16T07:35:14.933Z,20.20
2023-04-16T07:37:43.086Z,20.20
2023-04-16T07:40:11.623Z,20.25
2023-04-16T07:42:39.734Z,20.25
2023-04-16T07:45:08.423Z,20.25
2023-04-16T07:47:36.856Z,20.29
2023-04-16T07:50:06.103Z,20.33
2023-04-16T07:52:34.377Z,20.37
2023-04-16T07:55:02.239Z,20.36
2023-04-16T07:57:30.310Z,20.39
2023-04-16T07:59:58.391Z,20.41
2023-04-16T08:02:26.656Z,20.44
2023-04-16T08:04:54.810Z,20.47
2023-04-16T08:07:22.810Z,20.53
2023-04-16T08:09:51.706Z,20.56
2023-04-16T08:12:19.877Z,20.55
2023-04-16T08:14:48.142Z,20.56
2023-04-16T08:17:16.440Z,20.61
2023-04-16T08:19:47.591Z,20.66
2023-04-16T08:22:16.268Z,20.69
2023-04-16T08:24:44.287Z,20.70
2023-04-16T08:27:19.108Z,20.72
2023-04-16T08:29:48.682Z,20.79
2023-04-16T08:32:16.626Z,20.79
2023-04-16T08:34:44.644Z,20.82
2023-04-16T08:37:12.566Z,20.86
2023-04-16T08:39:40.561Z,20.89
2023-04-16T08:42:13.334Z,20.91
2023-04-16T08:44:43.955Z,20.96
2023-04-16T08:47:12.026Z,20.96
2023-04-16T08:49:44.998Z,21.02
2023-04-16T08:52:19.259Z,21.01
2023-04-16T08:54:58.882Z,21.01
2023-04-16T08:57:29.956Z,21.06
2023-04-16T08:59:58.125Z,21.09
2023-04-16T09:02:26.554Z,21.12
2023-04-16T09:04:55.487Z,21.14
2023-04-16T09:07:23.535Z,21.17
2023-04-16T09:09:51.513Z,21.19
2023-04-16T09:12:19.782Z,21.24
2023-04-16T09:14:49.896Z,21.26
2023-04-16T09:17:21.265Z,21.27
2023-04-16T09:19:49.426Z,21.26
2023-04-16T09:22:17.588Z,21.24
2023-04-16T09:24:45.765Z,21.29
2023-04-16T09:27:13.889Z,21.32
2023-04-16T09:29:42.328Z,21.38
2023-04-16T09:32:11.740Z,21.36
2023-04-16T09:34:59.678Z,21.37
2023-04-16T09:37:30.971Z,21.39
2023-04-16T09:40:03.809Z,21.39
2023-04-16T09:42:33.760Z,21.41
2023-04-16T09:45:05.005Z,21.44
2023-04-16T09:47:43.648Z,21.47
2023-04-16T09:50:19.137Z,21.48
2023-04-16T09:52:53.293Z,21.50
2023-04-16T09:55:29.471Z,21.52
2023-04-16T09:58:01.337Z,21.54
2023-04-16T10:00:31.362Z,21.58
2023-04-16T10:03:06.922Z,21.59
2023-04-16T10:05:35.422Z,21.63
2023-04-16T10:08:03.626Z,21.64
2023-04-16T10:10:31.760Z,21.65
2023-04-16T10:12:59.720Z,21.68
2023-04-16T10:15:27.799Z,21.70
2023-04-16T10:17:55.876Z,21.72
2023-04-16T10:20:24.150Z,21.76
2023-04-16T10:22:52.740Z,21.77
2023-04-16T10:25:21.119Z,21.81
2023-04-16T10:27:49.051Z,21.84
2023-04-16T10:30:17.206Z,21.85
2023-04-16T10:32:45.588Z,21.84
2023-04-16T10:35:19.879Z,21.88
2023-04-16T10:37:48.118Z,21.86
2023-04-16T10:40:26.634Z,21.90
2023-04-16T10:42:58.491Z,21.94
2023-04-16T10:45:29.662Z,21.96
2023-04-16T10:47:58.455Z,21.97
2023-04-16T10:50:34.703Z,22.01
2023-04-16T10:53:22.071Z,22.07
2023-04-16T10:56:26.429Z,22.07
2023-04-16T10:58:56.220Z,22.07
2023-04-16T11:01:31.487Z,22.09
2023-04-16T11:04:03.370Z,22.14
2023-04-16T11:06:32.300Z,22.16
2023-04-16T11:09:00.342Z,22.18
2023-04-16T11:11:28.392Z,22.20
2023-04-16T11:13:57.163Z,22.22
2023-04-16T11:16:26.470Z,22.24
2023-04-16T11:18:56.723Z,22.23
2023-04-16T11:21:25.405Z,22.24
2023-04-16T11:23:53.773Z,22.24
2023-04-16T11:26:28.612Z,22.22
2023-04-16T11:28:57.143Z,22.26
2023-04-16T11:31:27.401Z,22.28
2023-04-16T11:36:46.281Z,22.31
2023-04-16T11:39:14.356Z,22.36
2023-04-16T11:41:46.116Z,22.34
2023-04-16T11:44:20.736Z,22.38
2023-04-16T11:46:49.480Z,22.41
2023-04-16T11:49:17.600Z,22.43
2023-04-16T11:51:46.984Z,22.43
2023-04-16T11:54:21.282Z,22.44
2023-04-16T11:56:51.369Z,22.46
2023-04-16T11:59:23.269Z,22.47
2023-04-16T12:01:55.873Z,22.48
2023-04-16T12:07:14.334Z,22.54
2023-04-16T12:09:43.923Z,22.55
2023-04-16T12:12:31.445Z,22.56
2023-04-16T12:15:03.250Z,22.58
2023-04-16T12:17:35.346Z,22.61
2023-04-16T12:20:08.609Z,22.61
2023-04-16T12:22:40.661Z,22.61
2023-04-16T12:25:12.524Z,22.63
2023-04-16T12:27:43.468Z,22.65
2023-04-16T12:30:12.154Z,22.64
2023-04-16T12:32:41.474Z,22.63
2023-04-16T12:35:10.845Z,22.65
2023-04-16T12:37:39.331Z,22.64
2023-04-16T12:40:08.731Z,22.66
2023-04-16T12:42:36.662Z,22.68
2023-04-16T12:45:05.810Z,22.71
2023-04-16T12:47:34.140Z,22.70
2023-04-16T12:50:02.394Z,22.71
2023-04-16T12:52:31.012Z,22.71
2023-04-16T12:54:59.210Z,22.70
2023-04-16T12:57:28.937Z,22.71
2023-04-16T12:59:57.519Z,22.73
2023-04-16T13:02:26.502Z,22.73
2023-04-16T13:04:54.794Z,22.72
2023-04-16T13:07:22.849Z,22.73
2023-04-16T13:09:51.029Z,22.73
2023-04-16T13:12:18.923Z,22.72
2023-04-16T13:14:46.973Z,22.73
2023-04-16T13:17:15.459Z,22.72
2023-04-16T13:19:43.517Z,22.71
2023-04-16T13:22:11.434Z,22.70
2023-04-16T13:24:39.640Z,22.70
2023-04-16T13:27:08.650Z,22.68
2023-04-16T13:29:36.813Z,22.71
2023-04-16T13:32:05.609Z,22.68
2023-04-16T13:34:33.615Z,22.65
2023-04-16T13:37:01.795Z,22.62
2023-04-16T13:39:29.928Z,22.60
2023-04-16T13:41:58.010Z,22.57
2023-04-16T13:44:25.989Z,22.53
2023-04-16T13:46:54.063Z,22.49
2023-04-16T13:49:22.949Z,22.45
2023-04-16T13:51:51.108Z,22.41
2023-04-16T13:54:19.311Z,22.35
2023-04-16T13:56:47.360Z,22.31
2023-04-16T13:59:16.866Z,22.28
2023-04-16T14:01:45.038Z,22.23
2023-04-16T14:04:13.451Z,22.19
2023-04-16T14:06:41.690Z,22.15
2023-04-16T14:09:11.185Z,22.11
2023-04-16T14:11:39.464Z,22.09
2023-04-16T14:14:07.658Z,22.04
2023-04-16T14:16:36.165Z,22.00
2023-04-16T14:19:04.232Z,21.98
2023-04-16T14:21:32.376Z,21.95
2023-04-16T14:24:00.631Z,21.91
2023-04-16T14:26:28.718Z,21.87
2023-04-16T14:28:56.775Z,21.82
2023-04-16T14:31:25.631Z,21.76
2023-04-16T14:33:53.860Z,21.79
2023-04-16T14:36:22.029Z,21.76
2023-04-16T14:38:50.202Z,21.75
2023-04-16T14:41:18.273Z,21.72
2023-04-16T14:43:46.357Z,21.67
2023-04-16T14:46:17.932Z,21.63
2023-04-16T14:48:46.249Z,21.63
2023-04-16T14:51:14.303Z,21.60
2023-04-16T14:53:42.442Z,21.56
2023-04-16T14:56:11.121Z,21.54
2023-04-16T14:58:39.443Z,21.54
2023-04-16T15:01:07.703Z,21.54
2023-04-16T15:03:36.486Z,21.50
2023-04-16T15:06:05.921Z,21.51
2023-04-16T15:08:34.647Z,21.48
2023-04-16T15:11:02.629Z,21.45
2023-04-16T15:13:34.180Z,21.46
2023-04-16T15:16:02.644Z,21.47
2023-04-16T15:18:31.213Z,21.44
2023-04-16T15:20:59.306Z,21.45
2023-04-16T15:23:27.372Z,21.47
2023-04-16T15:25:55.575Z,21.44
2023-04-16T15:28:23.618Z,21.44
2023-04-16T15:30:52.514Z,21.43
2023-04-16T15:33:21.520Z,21.43
2023-04-16T15:35:51.642Z,21.44
2023-04-16T15:38:21.510Z,21.41
2023-04-16T15:40:49.607Z,21.36
2023-04-16T15:43:17.503Z,21.34
2023-04-16T15:45:45.695Z,21.35
2023-04-16T15:48:14.504Z,21.32
2023-04-16T15:50:42.627Z,21.31
2023-04-16T15:53:10.601Z,21.31
2023-04-16T15:55:38.780Z,21.29
2023-04-16T15:58:06.829Z,21.26
2023-04-16T16:00:34.914Z,21.24
2023-04-16T16:03:03.295Z,21.19
2023-04-16T16:05:31.465Z,21.15
2023-04-16T16:07:59.656Z,21.13
2023-04-16T16:10:27.826Z,21.12
2023-04-16T16:12:57.294Z,21.15
2023-04-16T16:15:25.891Z,21.13
2023-04-16T16:17:53.873Z,21.10
2023-04-16T16:20:22.862Z,21.07
2023-04-16T16:22:53.195Z,21.04
2023-04-16T16:25:21.571Z,21.01
2023-04-16T16:27:49.649Z,21.01
2023-04-16T16:30:17.720Z,21.06
2023-04-16T16:32:46.041Z,21.08
2023-04-16T16:35:14.156Z,21.09
2023-04-16T16:37:42.555Z,21.12
2023-04-16T16:40:11.326Z,21.16
2023-04-16T16:42:39.424Z,21.17
2023-04-16T16:45:08.304Z,21.17
2023-04-16T16:47:36.283Z,21.19
2023-04-16T16:50:06.054Z,21.20
2023-04-16T16:52:34.146Z,21.22
2023-04-16T16:55:02.538Z,21.22
2023-04-16T16:57:30.898Z,21.22
2023-04-16T16:59:59.110Z,21.25
2023-04-16T17:02:27.333Z,21.25
2023-04-16T17:04:56.033Z,21.25
2023-04-16T17:07:24.316Z,21.26
2023-04-16T17:09:52.389Z,21.24
2023-04-16T17:12:20.563Z,21.25
2023-04-16T17:14:50.621Z,21.25
2023-04-16T17:17:19.199Z,21.25
2023-04-16T17:19:47.238Z,21.25
2023-04-16T17:22:15.708Z,21.26
2023-04-16T17:24:43.794Z,21.25
2023-04-16T17:27:11.957Z,21.25
2023-04-16T17:29:39.926Z,21.25
2023-04-16T17:32:08.072Z,21.25
2023-04-16T17:34:36.290Z,21.25
2023-04-16T17:37:04.477Z,21.25
2023-04-16T17:39:32.538Z,21.24
2023-04-16T17:42:03.138Z,21.23
2023-04-16T17:44:31.327Z,21.23
2023-04-16T17:46:59.409Z,21.23
2023-04-16T17:49:27.483Z,21.22
2023-04-16T17:51:55.554Z,21.23
2023-04-16T17:54:24.789Z,21.22
2023-04-16T17:56:53.025Z,21.22
2023-04-16T17:59:22.123Z,21.22
2023-04-16T18:01:50.188Z,21.20
2023-04-16T18:04:19.126Z,21.21
2023-04-16T18:06:47.566Z,21.20
2023-04-16T18:09:15.737Z,21.18
2023-04-16T18:11:43.722Z,21.19
2023-04-16T18:14:14.125Z,21.18
2023-04-16T18:16:42.719Z,21.17
2023-04-16T18:19:11.498Z,21.17
2023-04-16T18:21:39.776Z,21.16
2023-04-16T18:24:07.961Z,21.16
2023-04-16T18:26:36.385Z,21.14
2023-04-16T18:29:05.545Z,21.14
2023-04-16T18:31:33.965Z,21.15
2023-04-16T18:44:16.242Z,21.06
2023-04-16T18:46:44.240Z,21.06
2023-04-16T18:49:12.630Z,21.04
2023-04-16T18:51:42.137Z,21.05
2023-04-16T18:54:10.207Z,21.03
2023-04-16T18:56:38.169Z,21.05
2023-04-16T19:01:42.514Z,20.98
2023-04-16T19:04:10.689Z,20.96
2023-04-16T19:06:38.867Z,20.96
2023-04-16T19:09:09.433Z,20.97
2023-04-16T19:11:39.106Z,20.96
2023-04-16T19:14:08.295Z,20.94
2023-04-16T19:16:36.380Z,20.92
2023-04-16T19:19:04.438Z,20.90
2023-04-16T19:21:32.729Z,20.91
2023-04-16T19:24:01.215Z,20.87
2023-04-16T19:26:29.167Z,20.87
2023-04-16T19:28:57.240Z,20.89
2023-04-16T19:31:26.458Z,20.89
2023-04-16T19:33:54.522Z,20.87
2023-04-16T19:36:22.592Z,20.84
2023-04-16T19:38:50.663Z,20.87
2023-04-16T19:41:18.639Z,20.84
2023-04-16T19:43:46.811Z,20.82
2023-04-16T19:46:15.679Z,20.80
2023-04-16T19:48:43.861Z,20.79
2023-04-16T19:51:11.835Z,20.79
2023-04-16T19:53:39.911Z,20.82
2023-04-16T19:56:08.038Z,20.81
2023-04-16T19:58:36.463Z,20.80
2023-04-16T20:01:09.059Z,20.80
2023-04-16T20:03:38.309Z,20.77
2023-04-16T20:06:07.952Z,20.77
2023-04-16T20:08:36.021Z,20.75
2023-04-16T20:11:04.089Z,20.74
2023-04-16T20:13:32.268Z,20.73
2023-04-16T20:16:01.498Z,20.71
2023-04-16T20:18:29.639Z,20.68
2023-04-16T20:20:57.912Z,20.66
2023-04-16T20:23:26.422Z,20.65
2023-04-16T20:25:54.471Z,20.63
2023-04-16T20:28:22.743Z,20.62
2023-04-16T20:30:51.242Z,20.60
2023-04-16T20:33:19.504Z,20.60
2023-04-16T20:35:47.673Z,20.55
2023-04-16T20:38:15.634Z,20.57
2023-04-16T20:40:45.143Z,20.54
2023-04-16T20:43:14.416Z,20.54
2023-04-16T20:45:46.091Z,20.51
2023-04-16T20:48:14.168Z,20.48
2023-04-16T20:50:42.373Z,20.48
2023-04-16T20:53:10.629Z,20.47
2023-04-16T20:55:38.703Z,20.46
2023-04-16T20:58:06.671Z,20.43
2023-04-16T21:00:34.743Z,20.43
2023-04-16T21:03:03.089Z,20.41
2023-04-16T21:05:31.297Z,20.37
2023-04-16T21:07:59.585Z,20.38
2023-04-16T21:10:27.755Z,20.33
2023-04-16T21:12:55.817Z,20.35
2023-04-16T21:15:23.794Z,20.36
2023-04-16T21:17:51.808Z,20.33
2023-04-16T21:20:20.011Z,20.31
2023-04-16T21:22:47.939Z,20.28
2023-04-16T21:25:16.076Z,20.29
2023-04-16T21:27:44.039Z,20.28
2023-04-16T21:30:12.935Z,20.28
2023-04-16T21:32:40.943Z,20.27
2023-04-16T21:35:09.700Z,20.26
2023-04-16T21:37:37.869Z,20.25
2023-04-16T21:40:06.720Z,20.25
2023-04-16T21:42:39.870Z,20.22
2023-04-16T21:45:11.112Z,20.19
2023-04-16T21:47:39.267Z,20.20
2023-04-16T21:50:08.356Z,20.21
2023-04-16T21:52:40.722Z,20.14
2023-04-16T21:55:09.844Z,20.13
2023-04-16T21:57:37.927Z,20.10
2023-04-16T22:00:14.351Z,20.11
2023-04-16T22:02:43.028Z,20.11
2023-04-16T22:05:11.760Z,20.11
2023-04-16T22:07:39.923Z,20.06
2023-04-16T22:10:08.920Z,20.06
2023-04-16T22:12:40.001Z,20.07
2023-04-16T22:15:09.231Z,20.04
2023-04-16T22:17:37.554Z,20.06
2023-04-16T22:20:08.276Z,20.03
2023-04-16T22:22:36.458Z,20.00
2023-04-16T22:25:05.174Z,20.01
2023-04-16T22:27:33.925Z,20.00
2023-04-16T22:30:02.989Z,20.00
2023-04-16T22:32:31.095Z,19.99
2023-04-16T22:34:59.364Z,19.96
2023-04-16T22:37:27.419Z,19.94
2023-04-16T22:39:55.465Z,19.95
2023-04-16T22:42:24.254Z,19.97
2023-04-16T22:44:52.264Z,19.96
2023-04-16T22:47:21.654Z,19.92
2023-04-16T22:49:50.454Z,19.93
2023-04-16T22:52:18.434Z,19.90
2023-04-16T22:54:46.582Z,19.91
2023-04-16T22:57:14.565Z,19.90
2023-04-16T22:59:42.599Z,19.91
2023-04-16T23:02:10.639Z,19.89
2023-04-16T23:04:38.559Z,19.87
2023-04-16T23:07:06.537Z,19.85
2023-04-16T23:09:34.717Z,19.91
2023-04-16T23:12:03.303Z,19.87
2023-04-16T23:14:31.575Z,19.86
2023-04-16T23:16:59.766Z,19.84
2023-04-16T23:19:27.926Z,19.82
2023-04-16T23:21:56.189Z,19.81
2023-04-16T23:24:24.287Z,19.81
2023-04-16T23:26:52.972Z,19.82
2023-04-16T23:29:21.137Z,19.81
2023-04-16T23:31:49.134Z,19.79
2023-04-16T23:34:17.376Z,19.78
2023-04-16T23:36:46.295Z,19.78
2023-04-16T23:39:14.452Z,19.78
2023-04-16T23:44:16.631Z,19.72
2023-04-16T23:46:44.867Z,19.73
2023-04-16T23:49:13.366Z,19.74
2023-04-16T23:51:41.684Z,19.72
2023-04-16T23:54:09.982Z,19.72
2023-04-16T23:56:38.056Z,19.73
2023-04-16T23:59:06.285Z,19.72
